Time;durP1;ratioP1;P1;durP2;ratioP2;P2;SDS_P1;SDS_P2;PMS_P1;PMS_P2;Temp;Humidity;BMP_temperature;BMP_pressure;BME280_temperature;BME280_humidity;BME280_pressure;Samples;Min_cycle;Max_cycle;Signal;HPM_P1;HPM_P2
2022/06/09 04:14:27;;;;;;;32.90;23.93;;;;;;;17.97;100.00;99464.91;5564432;32;172136;-85
2022/06/09 04:17:30;;;;;;;34.05;23.55;;;;;;;17.97;100.00;99464.91;5550805;32;34356;-85
2022/06/09 04:20:33;;;;;;;31.80;23.73;;;;;;;17.79;100.00;99475.53;5550586;32;33598;-85
2022/06/09 04:23:36;;;;;;;26.85;21.60;;;;;;;18.15;100.00;99481.09;5542281;32;32340;-85
2022/06/09 04:26:40;;;;;;;27.30;19.90;;;;;;;18.51;100.00;99479.53;5543497;32;33486;-85
2022/06/09 04:29:43;;;;;;;28.67;19.15;;;;;;;18.99;100.00;99477.50;5543189;32;33713;-85
2022/06/09 04:32:46;;;;;;;23.73;19.30;;;;;;;19.18;100.00;99483.75;5543143;32;33970;-85
2022/06/09 04:35:48;;;;;;;28.58;20.15;;;;;;;19.39;100.00;99478.91;5543143;32;34390;-85
2022/06/09 04:38:51;;;;;;;26.55;19.45;;;;;;;19.21;100.00;99484.28;5543325;32;34064;-85
2022/06/09 04:41:54;;;;;;;26.80;19.25;;;;;;;19.21;100.00;99480.78;5543495;32;33781;-85
2022/06/09 04:44:57;;;;;;;24.37;19.40;;;;;;;19.09;100.00;99489.06;5543547;32;33644;-85
2022/06/09 04:48:00;;;;;;;26.35;20.45;;;;;;;19.21;100.00;99494.22;5543817;32;33552;-85
2022/06/09 04:51:08;;;;;;;27.92;20.62;;;;;;;19.23;100.00;99497.59;5542847;32;33487;-85
2022/06/09 04:54:11;;;;;;;27.37;20.30;;;;;;;19.18;100.00;99499.88;5543980;32;33833;-85
2022/06/09 04:57:13;;;;;;;28.48;19.83;;;;;;;19.21;100.00;99497.72;5545952;32;33711;-85
2022/06/09 05:00:17;;;;;;;28.35;20.55;;;;;;;19.41;100.00;99494.03;5552192;32;33903;-85
2022/06/09 05:03:20;;;;;;;28.58;22.58;;;;;;;19.53;100.00;99503.56;5558374;32;32636;-85
2022/06/09 05:06:24;;;;;;;34.05;25.00;;;;;;;19.65;100.00;99501.44;5547876;32;33457;-85
2022/06/09 05:09:27;;;;;;;33.30;23.87;;;;;;;19.51;100.00;99505.56;5544327;32;34254;-85
2022/06/09 05:12:30;;;;;;;31.52;24.60;;;;;;;19.45;100.00;99508.88;5544561;32;34032;-85
2022/06/09 05:15:46;;;;;;;32.55;24.77;;;;;;;19.31;100.00;99512.94;5545988;32;33963;-85
2022/06/09 05:18:49;;;;;;;23.77;20.48;;;;;;;20.04;100.00;99500.22;5546224;32;32221;-85
2022/06/09 05:21:52;;;;;;;22.80;18.62;;;;;;;22.94;92.44;99510.19;5551909;32;33938;-85
2022/06/09 05:24:58;;;;;;;20.65;18.20;;;;;;;24.76;78.26;99512.16;5543790;32;33786;-85
2022/06/09 05:28:00;;;;;;;20.00;17.00;;;;;;;24.42;76.44;99517.16;5544450;32;34596;-86
2022/06/09 05:31:03;;;;;;;18.83;16.83;;;;;;;23.84;80.45;99520.47;5543913;32;34673;-85
2022/06/09 05:34:06;;;;;;;22.62;18.90;;;;;;;23.38;80.63;99524.09;5534603;32;32483;-86
2022/06/09 05:37:09;;;;;;;25.05;18.70;;;;;;;22.91;85.70;99525.88;5530295;32;33740;-84
2022/06/09 05:46:55;;;;;;;17.45;15.32;;;;;;;26.69;67.54;99533.16;5530069;32;34050;-86
2022/06/09 05:49:58;;;;;;;20.42;15.80;;;;;;;26.47;66.42;99531.38;5534214;32;33930;-86
2022/06/09 05:53:00;;;;;;;14.60;13.10;;;;;;;29.76;56.08;99532.12;5536053;32;33858;-87
2022/06/09 06:03:49;;;;;;;16.00;14.38;;;;;;;24.43;71.71;99536.97;5529126;32;20116;-86
2022/06/09 06:06:52;;;;;;;16.90;14.93;;;;;;;23.65;76.86;99536.22;5529192;32;34440;-87
2022/06/09 06:09:54;;;;;;;18.35;15.55;;;;;;;23.05;79.30;99525.12;5536191;32;33861;-86
2022/06/09 06:12:57;;;;;;;21.00;16.98;;;;;;;22.64;82.89;99528.06;5531569;32;33806;-86
2022/06/09 06:15:59;;;;;;;17.50;15.77;;;;;;;22.46;82.62;99539.94;5528522;32;34082;-86
2022/06/09 06:19:23;;;;;;;22.90;18.02;;;;;;;21.97;85.90;99546.31;5531028;32;33975;-91
2022/06/09 06:22:25;;;;;;;19.08;17.08;;;;;;;21.61;86.92;99548.34;5528658;32;33771;-86
2022/06/09 06:25:28;;;;;;;18.30;16.17;;;;;;;21.39;91.20;99547.16;5542253;32;33983;-86
2022/06/09 06:28:31;;;;;;;16.98;15.18;;;;;;;21.18;92.30;99544.94;5557471;32;33542;-86
2022/06/09 06:31:34;;;;;;;18.27;14.82;;;;;;;21.10;92.53;99546.59;5562582;32;34838;-86
2022/06/09 06:34:36;;;;;;;16.58;13.95;;;;;;;21.03;92.50;99544.72;5544399;32;34773;-86
2022/06/09 06:37:39;;;;;;;18.25;16.30;;;;;;;21.18;92.12;99544.94;5539261;32;35144;-85
2022/06/09 06:40:42;;;;;;;18.23;15.57;;;;;;;21.15;91.23;99546.09;5533515;32;33801;-86
2022/06/09 06:43:48;;;;;;;16.40;14.63;;;;;;;20.72;95.27;99546.16;5530622;32;34812;-86
2022/06/09 06:46:51;;;;;;;17.77;15.60;;;;;;;20.67;95.91;99545.78;5534424;32;33697;-86
2022/06/09 06:49:54;;;;;;;18.20;15.45;;;;;;;20.54;97.44;99541.69;5549736;32;33856;-86
2022/06/09 06:52:56;;;;;;;17.27;15.45;;;;;;;20.52;99.18;99540.16;5538372;32;34523;-85
2022/06/09 06:55:59;;;;;;;12.75;11.45;;;;;;;20.57;98.33;99543.22;5531085;32;33949;-86
2022/06/09 06:59:02;;;;;;;15.93;12.50;;;;;;;20.76;95.78;99543.97;5530696;32;33959;-86
2022/06/09 07:02:06;;;;;;;17.12;14.07;;;;;;;20.73;96.02;99542.44;5538845;32;33663;-86
2022/06/09 07:05:09;;;;;;;12.20;10.80;;;;;;;20.95;96.64;99546.41;5537237;32;33711;-86
2022/06/09 07:08:15;;;;;;;12.65;11.25;;;;;;;21.10;92.03;99551.16;5533329;32;33642;-85
2022/06/09 07:11:18;;;;;;;16.55;11.20;;;;;;;21.16;91.26;99547.78;5545247;32;34225;-86
2022/06/09 07:14:21;;;;;;;15.45;11.00;;;;;;;21.39;87.92;99560.63;5541208;32;36439;-85
2022/06/09 07:17:24;;;;;;;14.38;10.77;;;;;;;21.43;89.02;99556.59;5534973;32;34400;-86
2022/06/09 07:20:28;;;;;;;14.05;10.93;;;;;;;21.59;86.65;99552.22;5535164;32;34392;-84
2022/06/09 07:23:31;;;;;;;13.38;10.40;;;;;;;21.76;86.11;99559.31;5532404;32;34180;-89
2022/06/09 07:26:33;;;;;;;13.07;10.23;;;;;;;21.67;86.40;99561.16;5535576;32;33832;-90
2022/06/09 07:29:40;;;;;;;11.52;9.05;;;;;;;21.61;85.57;99559.13;5560148;26;34484;-90
2022/06/09 07:32:43;;;;;;;12.90;10.02;;;;;;;21.51;86.55;99551.22;5567134;31;34076;-87
2022/06/09 07:35:46;;;;;;;10.55;8.60;;;;;;;21.20;86.41;99553.69;5569307;32;34063;-88
2022/06/09 07:38:50;;;;;;;9.98;8.48;;;;;;;21.04;88.28;99557.19;5554624;31;34678;-89
2022/06/09 07:41:52;;;;;;;9.98;8.68;;;;;;;21.19;87.87;99550.16;5553321;32;33834;-88
2022/06/09 07:44:55;;;;;;;11.23;9.13;;;;;;;21.12;86.82;99549.16;5561035;32;35029;-92
2022/06/09 07:48:00;;;;;;;10.25;9.00;;;;;;;21.02;87.53;99556.53;5566307;26;34045;-90
2022/06/09 07:51:04;;;;;;;10.70;8.43;;;;;;;20.96;88.08;99553.47;5568405;32;33756;-89
2022/06/09 08:50:17;;;;;;;9.82;6.87;;;;;;;22.86;71.82;99545.34;5567067;26;20425;-88
2022/06/09 08:53:23;;;;;;;10.65;6.45;;;;;;;23.28;71.93;99543.25;5597925;26;33611;-89
2022/06/09 08:56:33;;;;;;;5.80;5.12;;;;;;;23.78;65.65;99542.88;5547090;32;33927;-88
2022/06/09 08:59:37;;;;;;;7.55;5.90;;;;;;;23.69;64.58;99539.41;5534978;32;33227;-89
2022/06/09 09:02:45;;;;;;;6.30;5.20;;;;;;;23.83;66.56;99529.59;5553900;26;35111;-89
2022/06/09 09:06:06;;;;;;;6.53;5.28;;;;;;;24.35;64.34;99522.47;5519824;32;33874;-89
2022/06/09 09:09:15;;;;;;;5.28;4.78;;;;;;;24.91;64.17;99523.00;5514383;32;34251;-88
2022/06/09 09:12:51;;;;;;;6.70;5.10;;;;;;;25.16;63.04;99514.47;5520087;32;34248;-88
2022/06/09 09:15:58;;;;;;;5.60;5.00;;;;;;;25.15;61.47;99520.94;5529398;32;34782;-92
2022/06/09 09:19:40;;;;;;;5.18;4.68;;;;;;;24.72;64.54;99511.69;5524537;32;33581;-89
2022/06/09 09:23:27;;;;;;;5.72;4.62;;;;;;;25.31;65.87;99503.56;5500339;32;33697;-89
2022/06/09 09:26:46;;;;;;;5.80;3.60;;;;;;;26.61;55.33;99502.34;5454446;32;34968;-88
2022/06/09 09:30:00;;;;;;;5.95;3.90;;;;;;;28.29;53.44;99495.34;5519286;27;33896;-89
2022/06/09 09:33:04;;;;;;;6.00;3.50;;;;;;;28.35;51.47;99497.22;5472596;32;33940;-89
2022/06/09 09:36:15;;;;;;;4.32;3.50;;;;;;;27.16;53.87;99492.50;5472460;32;33755;-88
2022/06/09 09:39:39;;;;;;;4.03;3.60;;;;;;;27.02;54.93;99499.78;5522384;26;34630;-86
2022/06/09 09:42:43;;;;;;;3.80;3.45;;;;;;;27.29;53.98;99505.25;5470058;32;33711;-91
2022/06/09 09:45:49;;;;;;;4.60;4.20;;;;;;;27.43;54.20;99504.25;5471551;32;34058;-92
2022/06/09 09:48:57;;;;;;;6.15;3.53;;;;;;;27.47;54.55;99509.25;5466604;32;32616;-88
2022/06/09 09:52:35;;;;;;;4.77;4.03;;;;;;;27.38;53.64;99497.72;5471674;32;33749;-88
2022/06/09 09:55:51;;;;;;;4.90;4.50;;;;;;;26.26;56.41;99505.16;5473913;32;34236;-89
2022/06/09 09:58:58;;;;;;;4.68;4.20;;;;;;;25.71;59.13;99489.50;5511951;32;34036;-88
2022/06/09 10:57:57;;;;;;;4.55;3.83;;;;;;;27.78;50.25;99451.44;5432737;32;33805;-89
2022/06/09 11:00:59;;;;;;;4.72;3.87;;;;;;;27.67;48.34;99430.28;5436635;32;33511;-87
2022/06/09 11:04:10;;;;;;;4.90;3.60;;;;;;;26.97;49.78;99424.22;5444322;32;32646;-88
2022/06/09 11:07:31;;;;;;;4.75;3.25;;;;;;;27.51;49.71;99421.47;5447664;32;33974;-89
2022/06/09 11:11:05;;;;;;;4.00;3.70;;;;;;;27.69;48.30;99428.19;5427222;32;35391;-89
2022/06/09 11:14:27;;;;;;;4.90;3.78;;;;;;;27.27;50.75;99421.09;5434383;32;34343;-89
2022/06/09 11:17:36;;;;;;;4.00;3.72;;;;;;;27.80;48.29;99427.53;5438085;32;34570;-88
2022/06/09 11:20:51;;;;;;;5.85;3.72;;;;;;;27.51;47.83;99412.47;5435713;32;34676;-88
2022/06/09 11:24:12;;;;;;;4.10;3.80;;;;;;;28.35;46.16;99409.97;5432465;32;33078;-89
2022/06/09 11:27:40;;;;;;;4.68;3.70;;;;;;;28.74;44.26;99404.50;5432203;32;34163;-91
2022/06/09 11:30:58;;;;;;;4.47;3.60;;;;;;;27.71;46.31;99393.41;5421608;32;33753;-90
2022/06/09 11:34:18;;;;;;;8.70;4.57;;;;;;;26.48;51.76;99398.97;5448587;32;33909;-90
2022/06/09 11:38:07;;;;;;;9.07;5.47;;;;;;;25.73;61.70;99407.84;5442756;32;33936;-89
2022/06/09 11:41:37;;;;;;;11.48;6.97;;;;;;;23.98;73.06;99405.03;5414104;32;33406;-87
2022/06/09 11:44:51;;;;;;;8.82;6.72;;;;;;;22.40;94.32;99406.41;5420912;32;33873;-88
2022/06/09 11:47:57;;;;;;;13.80;7.72;;;;;;;22.04;100.00;99398.81;5454219;32;34382;-88
2022/06/09 11:51:02;;;;;;;13.62;8.23;;;;;;;21.88;100.00;99394.31;5453849;32;34417;-88
2022/06/09 11:54:27;;;;;;;9.10;8.02;;;;;;;22.24;100.00;99387.56;5450619;32;34851;-89
2022/06/09 12:01:36;;;;;;;9.77;8.80;;;;;;;22.01;100.00;99369.44;832116;30;20931;-88
2022/06/09 12:05:23;;;;;;;10.45;9.35;;;;;;;21.81;100.00;99381.50;5443292;32;32124;-87
2022/06/09 12:08:37;;;;;;;11.40;10.20;;;;;;;21.52;100.00;99393.69;5458624;32;34123;-86
2022/06/09 12:11:59;;;;;;;11.98;10.10;;;;;;;21.43;100.00;99415.47;5439871;32;34370;-86
2022/06/09 12:15:24;;;;;;;11.73;6.35;;;;;;;20.98;100.00;99422.06;5457073;32;34810;-89
2022/06/09 12:18:31;;;;;;;5.45;4.43;;;;;;;20.12;100.00;99441.00;5433627;32;33815;-87
2022/06/09 12:21:36;;;;;;;6.03;4.12;;;;;;;19.54;100.00;99446.06;5452304;32;33794;-86
2022/06/09 12:25:00;;;;;;;5.47;3.72;;;;;;;18.75;100.00;99440.50;5455226;32;33523;-87
2022/06/09 12:28:41;;;;;;;5.70;3.90;;;;;;;18.37;100.00;99445.97;5444286;32;32522;-85
2022/06/09 12:32:09;;;;;;;5.72;4.20;;;;;;;18.24;100.00;99435.56;5466746;32;33647;-86
2022/06/09 12:35:25;;;;;;;8.60;4.37;;;;;;;18.07;100.00;99421.13;5451567;32;33871;-87
2022/06/09 12:39:03;;;;;;;4.05;3.20;;;;;;;18.12;100.00;99427.75;5448964;32;33349;-85
2022/06/09 12:42:15;;;;;;;7.45;3.58;;;;;;;17.92;100.00;99424.25;5439805;32;33632;-89
2022/06/09 12:45:24;;;;;;;4.65;3.90;;;;;;;17.90;100.00;99421.72;5455085;32;33609;-85
2022/06/09 12:48:33;;;;;;;10.63;4.72;;;;;;;17.86;100.00;99441.78;5456671;32;33684;-85
2022/06/09 12:51:39;;;;;;;6.20;4.25;;;;;;;17.96;100.00;99436.41;5440011;32;34063;-85
2022/06/09 12:54:42;;;;;;;4.45;4.03;;;;;;;18.27;100.00;99429.91;5435874;32;33312;-85
2022/06/09 12:57:51;;;;;;;11.38;4.43;;;;;;;18.39;100.00;99427.84;5446021;32;32577;-85
2022/06/09 13:00:57;;;;;;;6.15;4.30;;;;;;;18.40;100.00;99433.09;5457856;32;34266;-86
2022/06/09 13:04:04;;;;;;;5.10;4.60;;;;;;;18.90;100.00;99435.44;5461313;32;33814;-85
2022/06/09 13:07:28;;;;;;;6.93;4.78;;;;;;;19.33;100.00;99425.75;5473161;32;34095;-85
2022/06/09 13:10:38;;;;;;;6.12;5.60;;;;;;;19.70;100.00;99431.03;5469915;32;34755;-85
2022/06/09 13:13:44;;;;;;;7.50;5.75;;;;;;;19.85;100.00;99432.13;5438880;32;35013;-85
2022/06/09 13:16:50;;;;;;;10.73;5.82;;;;;;;20.52;100.00;99433.25;5436847;32;33831;-86
2022/06/09 13:20:03;;;;;;;9.85;6.60;;;;;;;21.08;100.00;99426.47;5438695;32;34362;-86
2022/06/09 13:23:10;;;;;;;8.35;6.68;;;;;;;20.77;100.00;99422.50;5443943;32;33897;-85
2022/06/09 13:26:16;;;;;;;5.37;4.68;;;;;;;20.93;100.00;99431.66;5445903;32;34411;-85
2022/06/09 13:29:35;;;;;;;3.50;3.20;;;;;;;20.67;96.71;99425.34;5438369;32;33813;-85
2022/06/09 13:32:45;;;;;;;3.15;2.72;;;;;;;20.24;97.25;99424.56;5446105;32;34049;-83
2022/06/09 13:35:52;;;;;;;5.25;2.83;;;;;;;19.50;97.51;99432.09;5439244;32;32514;-87
2022/06/09 13:38:56;;;;;;;4.40;3.22;;;;;;;19.30;100.00;99442.19;5462309;32;33852;-89
2022/06/09 13:42:09;;;;;;;9.75;2.83;;;;;;;19.09;100.00;99448.75;5455540;32;34619;-84
2022/06/09 13:45:26;;;;;;;8.95;2.70;;;;;;;18.76;100.00;99461.81;5449818;32;34004;-84
2022/06/09 13:48:42;;;;;;;7.40;3.15;;;;;;;18.39;100.00;99477.03;5449893;32;34095;-83
2022/06/09 13:52:00;;;;;;;4.20;2.90;;;;;;;18.14;100.00;99487.47;5454312;32;34660;-87
2022/06/09 13:55:09;;;;;;;11.20;3.97;;;;;;;18.08;100.00;99508.66;5455170;32;33778;-87
2022/06/09 13:58:12;;;;;;;7.15;3.45;;;;;;;17.72;100.00;99545.03;5455880;32;34220;-87
2022/06/09 14:01:16;;;;;;;6.75;4.90;;;;;;;17.57;100.00;99549.13;5455232;32;34994;-83
2022/06/09 14:04:28;;;;;;;12.10;5.97;;;;;;;17.37;100.00;99541.09;5442774;32;33615;-83
2022/06/09 14:07:30;;;;;;;11.20;5.43;;;;;;;17.19;100.00;99538.25;5435803;32;34733;-84
2022/06/09 14:10:34;;;;;;;8.32;4.60;;;;;;;17.07;100.00;99549.13;5435562;32;35076;-84
2022/06/09 14:13:37;;;;;;;10.15;5.65;;;;;;;16.84;100.00;99540.44;5434999;32;33860;-84
2022/06/09 14:16:43;;;;;;;7.65;4.37;;;;;;;16.83;100.00;99542.28;5421685;32;32545;-83
2022/06/09 14:19:47;;;;;;;8.73;4.37;;;;;;;16.63;100.00;99533.34;5435915;32;33582;-83
2022/06/09 14:22:50;;;;;;;6.18;4.20;;;;;;;16.55;100.00;99544.72;5435791;32;33938;-86
2022/06/09 14:26:13;;;;;;;5.22;4.28;;;;;;;16.41;100.00;99540.56;5436011;32;34090;-85
2022/06/09 14:29:19;;;;;;;8.63;4.90;;;;;;;16.32;100.00;99521.81;5435237;32;34175;-84
2022/06/09 14:32:21;;;;;;;9.00;5.28;;;;;;;16.25;100.00;99514.31;5438405;32;33696;-90
2022/06/09 14:39:10;;;;;;;12.55;6.40;;;;;;;16.16;100.00;99541.88;691935;30;20342;-88
2022/06/09 14:42:17;;;;;;;8.55;5.55;;;;;;;16.22;100.00;99533.31;5457054;32;31939;-88
2022/06/09 14:45:20;;;;;;;9.82;5.50;;;;;;;16.24;100.00;99517.97;5459007;32;33837;-88
2022/06/09 14:48:24;;;;;;;12.80;6.35;;;;;;;16.20;100.00;99513.03;5473743;27;33703;-88
2022/06/09 14:51:28;;;;;;;10.23;6.20;;;;;;;16.19;100.00;99517.53;5456841;32;34324;-88
2022/06/09 14:54:32;;;;;;;7.03;5.85;;;;;;;16.16;100.00;99521.31;5456589;32;34290;-89
2022/06/09 15:04:56;;;;;;;9.07;6.05;;;;;;;16.22;100.00;99511.06;5506603;27;20105;-88
2022/06/09 15:19:17;;;;;;;9.93;6.03;;;;;;;16.35;100.00;99516.19;5502564;27;20088;-87
2022/06/09 15:22:20;;;;;;;7.10;6.25;;;;;;;16.36;100.00;99510.72;5456596;32;34104;-88
2022/06/09 15:33:00;;;;;;;8.68;7.50;;;;;;;16.52;100.00;99512.03;1407516;27;20802;-85
2022/06/09 15:43:27;;;;;;;9.68;7.20;;;;;;;16.62;100.00;99520.94;1537622;27;20109;-86
2022/06/09 15:46:29;;;;;;;8.95;7.10;;;;;;;16.60;100.00;99536.28;5455974;32;33734;-88
2022/06/09 15:49:52;;;;;;;7.37;6.55;;;;;;;16.65;100.00;99531.34;5455918;32;35077;-88
2022/06/09 15:52:55;;;;;;;7.10;6.30;;;;;;;16.59;100.00;99523.03;5458896;32;34776;-90
